createdAt,value
2023-01-08T00:00:52.192Z,1004.70
2023-01-08T00:01:52.077Z,1004.71
2023-01-08T00:02:52.208Z,1004.71
2023-01-08T00:03:52.145Z,1004.70
2023-01-08T00:04:52.029Z,1004.67
2023-01-08T00:05:52.032Z,1004.58
2023-01-08T00:06:52.018Z,1004.61
2023-01-08T00:07:52.001Z,1004.57
2023-01-08T00:08:52.045Z,1004.61
2023-01-08T00:09:51.964Z,1004.57
2023-01-08T00:10:51.940Z,1004.59
2023-01-08T00:11:51.943Z,1004.61
2023-01-08T00:12:51.931Z,1004.62
2023-01-08T00:13:51.916Z,1004.55
2023-01-08T00:14:51.989Z,1004.55
2023-01-08T00:15:51.906Z,1004.56
2023-01-08T00:16:51.995Z,1004.53
2023-01-08T00:17:51.884Z,1004.53
2023-01-08T00:18:51.876Z,1004.52
2023-01-08T00:19:51.889Z,1004.52
2023-01-08T00:20:51.833Z,1004.50
2023-01-08T00:21:51.829Z,1004.46
2023-01-08T00:22:51.799Z,1004.46
2023-01-08T00:23:51.803Z,1004.47
2023-01-08T00:24:51.829Z,1004.46
2023-01-08T00:25:51.784Z,1004.43
2023-01-08T00:26:51.786Z,1004.47
2023-01-08T00:27:51.766Z,1004.47
2023-01-08T00:28:51.755Z,1004.45
2023-01-08T00:29:51.768Z,1004.43
2023-01-08T00:30:51.752Z,1004.45
2023-01-08T00:31:51.759Z,1004.38
2023-01-08T00:32:51.716Z,1004.38
2023-01-08T00:33:51.736Z,1004.36
2023-01-08T00:34:51.739Z,1004.36
2023-01-08T00:35:51.768Z,1004.39
2023-01-08T00:36:51.643Z,1004.35
2023-01-08T00:37:51.686Z,1004.37
2023-01-08T00:38:51.635Z,1004.36
2023-01-08T00:39:51.641Z,1004.40
2023-01-08T00:40:51.607Z,1004.36
2023-01-08T00:41:51.585Z,1004.42
2023-01-08T00:42:51.616Z,1004.33
2023-01-08T00:43:51.569Z,1004.39
2023-01-08T00:44:51.601Z,1004.36
2023-01-08T00:45:51.667Z,1004.25
2023-01-08T00:46:51.562Z,1004.23
2023-01-08T00:47:51.529Z,1004.28
2023-01-08T00:48:51.513Z,1004.28
2023-01-08T00:49:51.553Z,1004.22
2023-01-08T00:50:51.495Z,1004.23
2023-01-08T00:51:51.496Z,1004.20
2023-01-08T00:52:51.488Z,1004.22
2023-01-08T00:53:51.452Z,1004.23
2023-01-08T00:54:51.484Z,1004.18
2023-01-08T00:55:51.441Z,1004.18
2023-01-08T00:56:51.435Z,1004.11
2023-01-08T00:57:51.415Z,1004.09
2023-01-08T00:58:51.418Z,1004.10
2023-01-08T00:59:51.449Z,1004.09
2023-01-08T01:00:51.380Z,1004.09
2023-01-08T01:01:51.526Z,1004.04
2023-01-08T01:02:51.374Z,1004.07
2023-01-08T01:03:51.372Z,1004.08
2023-01-08T01:04:51.369Z,1004.06
2023-01-08T01:05:51.347Z,1004.01
2023-01-08T01:06:51.318Z,1003.97
2023-01-08T01:07:51.327Z,1004.03
2023-01-08T01:08:51.280Z,1004.01
2023-01-08T01:09:51.312Z,1004.05
2023-01-08T01:10:51.252Z,1003.99
2023-01-08T01:11:51.239Z,1003.95
2023-01-08T01:12:51.279Z,1003.93
2023-01-08T01:13:51.244Z,1003.94
2023-01-08T01:14:51.247Z,1003.91
2023-01-08T01:15:51.210Z,1003.93
2023-01-08T01:16:51.295Z,1003.92
2023-01-08T01:17:51.213Z,1003.90
2023-01-08T01:18:51.169Z,1003.88
2023-01-08T01:19:51.219Z,1003.90
2023-01-08T01:20:51.147Z,1003.87
2023-01-08T01:21:51.138Z,1003.90
2023-01-08T01:22:51.142Z,1003.88
2023-01-08T01:23:51.109Z,1003.86
2023-01-08T01:24:51.146Z,1003.79
2023-01-08T01:25:51.100Z,1003.79
2023-01-08T01:26:51.088Z,1003.73
2023-01-08T01:27:51.080Z,1003.76
2023-01-08T01:28:51.079Z,1003.72
2023-01-08T01:29:51.089Z,1003.77
2023-01-08T01:30:51.060Z,1003.69
2023-01-08T01:31:51.040Z,1003.72
2023-01-08T01:32:51.007Z,1003.73
2023-01-08T01:33:51.001Z,1003.75
2023-01-08T01:34:51.030Z,1003.75
2023-01-08T01:35:50.966Z,1003.80
2023-01-08T01:36:50.974Z,1003.75
2023-01-08T01:37:50.957Z,1003.72
2023-01-08T01:38:50.934Z,1003.73
2023-01-08T01:39:50.978Z,1003.67
2023-01-08T01:40:50.908Z,1003.63
2023-01-08T01:41:50.917Z,1003.64
2023-01-08T01:42:50.906Z,1003.60
2023-01-08T01:43:50.903Z,1003.58
2023-01-08T01:44:50.923Z,1003.55
2023-01-08T01:45:50.942Z,1003.49
2023-01-08T01:46:50.858Z,1003.53
2023-01-08T01:47:50.832Z,1003.51
2023-01-08T01:48:50.869Z,1003.47
2023-01-08T01:49:50.897Z,1003.43
2023-01-08T01:50:50.847Z,1003.45
2023-01-08T01:51:50.797Z,1003.42
2023-01-08T01:52:50.773Z,1003.43
2023-01-08T01:53:50.783Z,1003.44
2023-01-08T01:54:50.814Z,1003.41
2023-01-08T01:55:50.762Z,1003.44
2023-01-08T01:56:50.730Z,1003.46
2023-01-08T01:57:50.750Z,1003.41
2023-01-08T01:58:50.707Z,1003.37
2023-01-08T01:59:50.753Z,1003.37
2023-01-08T02:00:50.697Z,1003.32
2023-01-08T02:01:50.715Z,1003.40
2023-01-08T02:02:50.673Z,1003.36
2023-01-08T02:03:50.693Z,1003.33
2023-01-08T02:04:50.689Z,1003.37
2023-01-08T02:05:50.639Z,1003.32
2023-01-08T02:06:50.605Z,1003.37
2023-01-08T02:07:50.613Z,1003.37
2023-01-08T02:08:50.588Z,1003.36
2023-01-08T02:09:50.614Z,1003.29
2023-01-08T02:10:50.563Z,1003.30
2023-01-08T02:11:50.538Z,1003.27
2023-01-08T02:12:50.558Z,1003.27
2023-01-08T02:13:50.544Z,1003.23
2023-01-08T02:14:50.550Z,1003.22
2023-01-08T02:15:50.522Z,1003.25
2023-01-08T02:16:50.599Z,1003.35
2023-01-08T02:17:50.489Z,1003.25
2023-01-08T02:18:50.509Z,1003.28
2023-01-08T02:19:50.525Z,1003.25
2023-01-08T02:20:50.451Z,1003.25
2023-01-08T02:21:50.474Z,1003.23
2023-01-08T02:22:50.438Z,1003.18
2023-01-08T02:23:50.443Z,1003.19
2023-01-08T02:24:50.466Z,1003.14
2023-01-08T02:25:50.410Z,1003.11
2023-01-08T02:26:50.401Z,1003.14
2023-01-08T02:27:50.381Z,1003.12
2023-01-08T02:28:50.381Z,1003.09
2023-01-08T02:29:50.405Z,1003.05
2023-01-08T02:30:50.391Z,1003.03
2023-01-08T02:31:50.335Z,1003.01
2023-01-08T02:32:50.324Z,1002.94
2023-01-08T02:33:50.306Z,1002.93
2023-01-08T02:34:50.325Z,1002.92
2023-01-08T02:35:50.320Z,1002.86
2023-01-08T02:36:50.266Z,1002.88
2023-01-08T02:37:50.241Z,1002.86
2023-01-08T02:38:50.246Z,1002.86
2023-01-08T02:39:50.264Z,1002.85
2023-01-08T02:40:50.208Z,1002.88
2023-01-08T02:41:50.227Z,1002.83
2023-01-08T02:42:50.221Z,1002.86
2023-01-08T02:43:50.192Z,1002.81
2023-01-08T02:44:50.218Z,1002.81
2023-01-08T02:45:50.239Z,1002.82
2023-01-08T02:46:50.178Z,1002.82
2023-01-08T02:47:50.143Z,1002.74
2023-01-08T02:48:50.161Z,1002.70
2023-01-08T02:49:50.194Z,1002.68
2023-01-08T02:50:50.112Z,1002.71
2023-01-08T02:51:50.097Z,1002.69
2023-01-08T02:52:50.089Z,1002.65
2023-01-08T02:53:50.099Z,1002.61
2023-01-08T02:54:50.119Z,1002.52
2023-01-08T02:55:50.071Z,1002.56
2023-01-08T02:56:50.050Z,1002.51
2023-01-08T02:57:50.061Z,1002.52
2023-01-08T02:58:50.030Z,1002.59
2023-01-08T02:59:50.052Z,1002.57
2023-01-08T03:00:50.026Z,1002.58
2023-01-08T03:01:50.118Z,1002.58
2023-01-08T03:02:50.737Z,1002.56
2023-01-08T03:03:49.982Z,1002.57
2023-01-08T03:04:49.981Z,1002.55
2023-01-08T03:05:49.966Z,1002.67
2023-01-08T03:06:49.946Z,1002.66
2023-01-08T03:07:49.944Z,1002.72
2023-01-08T03:08:49.899Z,1002.78
2023-01-08T03:09:49.921Z,1002.69
2023-01-08T03:10:49.885Z,1002.72
2023-01-08T03:11:49.880Z,1002.73
2023-01-08T03:12:49.872Z,1002.70
2023-01-08T03:13:49.881Z,1002.74
2023-01-08T03:14:49.904Z,1002.68
2023-01-08T03:15:49.876Z,1002.69
2023-01-08T03:16:49.898Z,1002.70
2023-01-08T03:17:49.829Z,1002.62
2023-01-08T03:18:49.818Z,1002.68
2023-01-08T03:19:49.821Z,1002.66
2023-01-08T03:20:49.841Z,1002.69
2023-01-08T03:21:49.780Z,1002.72
2023-01-08T03:22:49.758Z,1002.67
2023-01-08T03:23:49.757Z,1002.63
2023-01-08T03:24:49.749Z,1002.61
2023-01-08T03:25:49.751Z,1002.55
2023-01-08T03:26:49.732Z,1002.56
2023-01-08T03:27:49.712Z,1002.55
2023-01-08T03:28:49.691Z,1002.55
2023-01-08T03:29:49.703Z,1002.51
2023-01-08T03:30:49.788Z,1002.46
2023-01-08T03:31:49.691Z,1002.51
2023-01-08T03:32:49.652Z,1002.45
2023-01-08T03:33:49.667Z,1002.44
2023-01-08T03:34:49.649Z,1002.45
2023-01-08T03:35:49.659Z,1002.43
2023-01-08T03:36:49.607Z,1002.42
2023-01-08T03:37:49.596Z,1002.42
2023-01-08T03:38:49.585Z,1002.39
2023-01-08T03:39:49.561Z,1002.40
2023-01-08T03:40:49.584Z,1002.39
2023-01-08T03:41:49.546Z,1002.36
2023-01-08T03:42:49.553Z,1002.31
2023-01-08T03:43:49.553Z,1002.31
2023-01-08T03:44:49.539Z,1002.27
2023-01-08T03:45:49.613Z,1002.29
2023-01-08T03:46:49.495Z,1002.24
2023-01-08T03:47:49.514Z,1002.20
2023-01-08T03:48:49.487Z,1002.22
2023-01-08T03:49:49.473Z,1002.13
2023-01-08T03:50:49.495Z,1002.17
2023-01-08T03:51:49.443Z,1002.17
2023-01-08T03:52:49.427Z,1002.20
2023-01-08T03:53:49.395Z,1002.26
2023-01-08T03:54:49.417Z,1002.26
2023-01-08T03:55:49.432Z,1002.27
2023-01-08T03:56:49.395Z,1002.27
2023-01-08T03:57:49.379Z,1002.31
2023-01-08T03:58:49.386Z,1002.33
2023-01-08T03:59:49.350Z,1002.34
2023-01-08T04:00:49.373Z,1002.33
2023-01-08T04:01:49.439Z,1002.34
2023-01-08T04:02:49.315Z,1002.33
2023-01-08T04:03:49.308Z,1002.40
2023-01-08T04:04:49.286Z,1002.35
2023-01-08T04:05:49.323Z,1002.37
2023-01-08T04:06:49.301Z,1002.34
2023-01-08T04:07:49.245Z,1002.33
2023-01-08T04:08:49.251Z,1002.37
2023-01-08T04:09:49.220Z,1002.36
2023-01-08T04:10:49.247Z,1002.34
2023-01-08T04:11:49.209Z,1002.38
2023-01-08T04:12:49.187Z,1002.42
2023-01-08T04:13:49.197Z,1002.37
2023-01-08T04:14:49.204Z,1002.35
2023-01-08T04:15:49.241Z,1002.33
2023-01-08T04:16:49.159Z,1002.28
2023-01-08T04:17:49.165Z,1002.26
2023-01-08T04:18:49.132Z,1002.18
2023-01-08T04:19:49.146Z,1002.17
2023-01-08T04:20:49.180Z,1002.13
2023-01-08T04:21:49.091Z,1002.17
2023-01-08T04:22:49.075Z,1002.13
2023-01-08T04:23:49.093Z,1002.14
2023-01-08T04:24:49.072Z,1002.17
2023-01-08T04:25:49.084Z,1002.19
2023-01-08T04:26:49.053Z,1002.16
2023-01-08T04:27:49.026Z,1002.13
2023-01-08T04:28:49.026Z,1002.13
2023-01-08T04:29:49.005Z,1002.13
2023-01-08T04:30:49.061Z,1002.08
2023-01-08T04:31:48.997Z,1002.08
2023-01-08T04:32:48.973Z,1001.99
2023-01-08T04:33:48.978Z,1001.93
2023-01-08T04:34:48.950Z,1001.94
2023-01-08T04:35:48.987Z,1001.91
2023-01-08T04:36:48.928Z,1001.91
2023-01-08T04:37:48.923Z,1001.86
2023-01-08T04:38:48.919Z,1001.85
2023-01-08T04:39:48.886Z,1001.83
2023-01-08T04:40:48.918Z,1001.80
2023-01-08T04:41:48.856Z,1001.82
2023-01-08T04:42:48.854Z,1001.84
2023-01-08T04:43:48.850Z,1001.85
2023-01-08T04:44:48.840Z,1001.84
2023-01-08T04:45:48.862Z,1001.80
2023-01-08T04:46:48.812Z,1001.79
2023-01-08T04:47:48.804Z,1001.81
2023-01-08T04:48:48.810Z,1001.79
2023-01-08T04:49:48.791Z,1001.77
2023-01-08T04:50:48.825Z,1001.77
2023-01-08T04:51:48.776Z,1001.80
2023-01-08T04:52:48.763Z,1001.76
2023-01-08T04:53:48.724Z,1001.79
2023-01-08T04:54:48.727Z,1001.76
2023-01-08T04:55:48.753Z,1001.71
2023-01-08T04:56:48.701Z,1001.73
2023-01-08T04:57:48.683Z,1001.67
2023-01-08T04:58:48.704Z,1001.70
2023-01-08T04:59:48.669Z,1001.68
2023-01-08T05:00:48.697Z,1001.63
2023-01-08T05:01:48.731Z,1001.63
2023-01-08T05:02:48.789Z,1001.62
2023-01-08T05:03:48.620Z,1001.69
2023-01-08T05:04:48.604Z,1001.67
2023-01-08T05:05:50.057Z,1001.69
2023-01-08T05:06:48.598Z,1001.71
2023-01-08T05:07:48.567Z,1001.66
2023-01-08T05:08:48.555Z,1001.70
2023-01-08T05:09:48.656Z,1001.67
2023-01-08T05:10:48.567Z,1001.67
2023-01-08T05:11:48.531Z,1001.71
2023-01-08T05:12:48.512Z,1001.70
2023-01-08T05:13:48.493Z,1001.69
2023-01-08T05:14:48.528Z,1001.66
2023-01-08T05:15:48.535Z,1001.68
2023-01-08T05:16:48.462Z,1001.65
2023-01-08T05:17:48.459Z,1001.67
2023-01-08T05:18:48.441Z,1001.67
2023-01-08T05:19:48.455Z,1001.64
2023-01-08T05:20:48.471Z,1001.69
2023-01-08T05:21:48.410Z,1001.72
2023-01-08T05:22:48.427Z,1001.73
2023-01-08T05:23:48.425Z,1001.74
2023-01-08T05:24:48.393Z,1001.80
2023-01-08T05:25:48.406Z,1001.82
2023-01-08T05:26:48.372Z,1001.85
2023-01-08T05:27:48.340Z,1001.79
2023-01-08T05:28:48.346Z,1001.73
2023-01-08T05:29:48.330Z,1001.74
2023-01-08T05:30:48.399Z,1001.67
2023-01-08T05:31:48.318Z,1001.67
2023-01-08T05:32:48.290Z,1001.65
2023-01-08T05:33:48.299Z,1001.59
2023-01-08T05:34:48.283Z,1001.62
2023-01-08T05:35:48.299Z,1001.58
2023-01-08T05:36:48.257Z,1001.57
2023-01-08T05:37:48.253Z,1001.57
2023-01-08T05:38:48.293Z,1001.56
2023-01-08T05:39:48.212Z,1001.60
2023-01-08T05:40:48.255Z,1001.58
2023-01-08T05:41:48.177Z,1001.68
2023-01-08T05:42:48.178Z,1001.66
2023-01-08T05:43:48.145Z,1001.62
2023-01-08T05:44:48.209Z,1001.61
2023-01-08T05:45:48.177Z,1001.57
2023-01-08T05:46:48.143Z,1001.55
2023-01-08T05:47:48.117Z,1001.50
2023-01-08T05:48:48.122Z,1001.55
2023-01-08T05:49:48.089Z,1001.57
2023-01-08T05:50:48.132Z,1001.58
2023-01-08T05:51:48.076Z,1001.60
2023-01-08T05:52:48.087Z,1001.59
2023-01-08T05:53:48.053Z,1001.58
2023-01-08T05:54:48.053Z,1001.61
2023-01-08T05:55:48.091Z,1001.56
2023-01-08T05:56:48.027Z,1001.60
2023-01-08T05:57:47.994Z,1001.61
2023-01-08T05:58:48.023Z,1001.68
2023-01-08T05:59:47.994Z,1001.61
2023-01-08T06:00:48.020Z,1001.62
2023-01-08T06:01:48.049Z,1001.58
2023-01-08T06:02:48.164Z,1001.58
2023-01-08T06:03:47.955Z,1001.52
2023-01-08T06:04:47.931Z,1001.54
2023-01-08T06:05:47.942Z,1001.56
2023-01-08T06:06:47.916Z,1001.55
2023-01-08T06:07:47.909Z,1001.57
2023-01-08T06:08:47.900Z,1001.55
2023-01-08T06:09:47.863Z,1001.50
2023-01-08T06:10:47.901Z,1001.49
2023-01-08T06:11:47.848Z,1001.45
2023-01-08T06:12:47.843Z,1001.45
2023-01-08T06:13:47.809Z,1001.46
2023-01-08T06:14:47.826Z,1001.47
2023-01-08T06:15:47.894Z,1001.48
2023-01-08T06:16:47.795Z,1001.47
2023-01-08T06:17:47.783Z,1001.44
2023-01-08T06:18:47.768Z,1001.47
2023-01-08T06:19:47.767Z,1001.53
2023-01-08T06:20:47.793Z,1001.51
2023-01-08T06:21:47.765Z,1001.47
2023-01-08T06:22:47.753Z,1001.54
2023-01-08T06:23:47.732Z,1001.54
2023-01-08T06:24:47.714Z,1001.45
2023-01-08T06:25:47.741Z,1001.45
2023-01-08T06:26:47.715Z,1001.42
2023-01-08T06:27:47.666Z,1001.41
2023-01-08T06:28:47.666Z,1001.42
2023-01-08T06:29:47.649Z,1001.42
2023-01-08T06:30:47.657Z,1001.46
2023-01-08T06:31:47.676Z,1001.46
2023-01-08T06:32:47.649Z,1001.45
2023-01-08T06:33:47.608Z,1001.46
2023-01-08T06:34:47.663Z,1001.52
2023-01-08T06:35:47.590Z,1001.53
2023-01-08T06:36:47.610Z,1001.52
2023-01-08T06:37:47.559Z,1001.52
2023-01-08T06:38:47.553Z,1001.50
2023-01-08T06:39:47.551Z,1001.50
2023-01-08T06:40:47.534Z,1001.50
2023-01-08T06:41:47.549Z,1001.44
2023-01-08T06:42:47.528Z,1001.43
2023-01-08T06:43:47.487Z,1001.41
2023-01-08T06:44:47.475Z,1001.46
2023-01-08T06:45:47.468Z,1001.48
2023-01-08T06:46:47.611Z,1001.45
2023-01-08T06:47:47.443Z,1001.41
2023-01-08T06:48:47.466Z,1001.41
2023-01-08T06:49:47.545Z,1001.37
2023-01-08T06:50:47.426Z,1001.31
2023-01-08T06:51:47.437Z,1001.31
2023-01-08T06:52:47.402Z,1001.31
2023-01-08T06:53:47.401Z,1001.33
2023-01-08T06:54:47.474Z,1001.27
2023-01-08T06:55:47.366Z,1001.28
2023-01-08T06:56:53.614Z,1001.28
2023-01-08T06:57:48.324Z,1001.26
2023-01-08T06:58:47.342Z,1001.29
2023-01-08T06:59:47.294Z,1001.18
2023-01-08T07:00:47.329Z,1001.23
2023-01-08T07:01:47.448Z,1001.18
2023-01-08T07:02:47.357Z,1001.19
2023-01-08T07:03:47.268Z,1001.19
2023-01-08T07:04:47.340Z,1001.25
2023-01-08T07:05:47.263Z,1001.32
2023-01-08T07:06:47.285Z,1001.31
2023-01-08T07:07:47.222Z,1001.32
2023-01-08T07:08:47.221Z,1001.37
2023-01-08T07:09:47.241Z,1001.35
2023-01-08T07:10:47.191Z,1001.35
2023-01-08T07:11:47.218Z,1001.38
2023-01-08T07:12:47.157Z,1001.38
2023-01-08T07:13:47.143Z,1001.34
2023-01-08T07:14:47.132Z,1001.36
2023-01-08T07:15:47.194Z,1001.36
2023-01-08T07:16:47.216Z,1001.39
2023-01-08T07:17:47.101Z,1001.37
2023-01-08T07:18:47.102Z,1001.40
2023-01-08T07:19:47.087Z,1001.38
2023-01-08T07:20:47.109Z,1001.43
2023-01-08T07:21:47.101Z,1001.43
2023-01-08T07:22:47.054Z,1001.43
2023-01-08T07:23:47.079Z,1001.38
2023-01-08T07:24:47.023Z,1001.41
2023-01-08T07:25:47.031Z,1001.48
2023-01-08T07:26:47.120Z,1001.44
2023-01-08T07:27:47.003Z,1001.44
2023-01-08T07:28:46.984Z,1001.47
2023-01-08T07:29:46.993Z,1001.49
2023-01-08T07:30:46.973Z,1001.46
2023-01-08T07:31:46.965Z,1001.42
2023-01-08T07:32:46.938Z,1001.47
2023-01-08T07:33:46.942Z,1001.41
2023-01-08T07:34:46.948Z,1001.42
2023-01-08T07:35:46.912Z,1001.37
2023-01-08T07:36:46.945Z,1001.39
2023-01-08T07:37:46.878Z,1001.40
2023-01-08T07:38:46.884Z,1001.34
2023-01-08T07:39:46.840Z,1001.28
2023-01-08T07:40:46.842Z,1001.33
2023-01-08T07:41:46.871Z,1001.37
2023-01-08T07:42:46.831Z,1001.41
2023-01-08T07:43:46.805Z,1001.43
2023-01-08T07:44:46.801Z,1001.38
2023-01-08T07:45:46.790Z,1001.37
2023-01-08T07:46:46.865Z,1001.40
2023-01-08T07:47:46.760Z,1001.42
2023-01-08T07:48:46.769Z,1001.41
2023-01-08T07:49:46.752Z,1001.43
2023-01-08T07:50:46.745Z,1001.44
2023-01-08T07:51:46.765Z,1001.44
2023-01-08T07:52:46.706Z,1001.45
2023-01-08T07:53:46.687Z,1001.37
2023-01-08T07:54:46.716Z,1001.29
2023-01-08T07:55:46.689Z,1001.33
2023-01-08T07:56:46.701Z,1001.32
2023-01-08T07:57:46.663Z,1001.33
2023-01-08T07:58:46.635Z,1001.31
2023-01-08T07:59:46.657Z,1001.34
2023-01-08T08:00:46.624Z,1001.34
2023-01-08T08:01:46.925Z,1001.34
2023-01-08T08:02:46.842Z,1001.35
2023-01-08T08:03:46.591Z,1001.43
2023-01-08T08:04:46.574Z,1001.38
2023-01-08T08:05:46.565Z,1001.36
2023-01-08T08:06:46.597Z,1001.30
2023-01-08T08:07:46.546Z,1001.29
2023-01-08T08:08:46.533Z,1001.28
2023-01-08T08:09:46.532Z,1001.29
2023-01-08T08:10:46.512Z,1001.26
2023-01-08T08:11:46.500Z,1001.30
2023-01-08T08:12:46.512Z,1001.29
2023-01-08T08:13:46.477Z,1001.33
2023-01-08T08:14:46.473Z,1001.33
2023-01-08T08:15:46.480Z,1001.32
2023-01-08T08:16:46.428Z,1001.37
2023-01-08T08:17:46.455Z,1001.37
2023-01-08T08:18:46.419Z,1001.37
2023-01-08T08:19:46.421Z,1001.35
2023-01-08T08:20:46.389Z,1001.33
2023-01-08T08:21:46.399Z,1001.32
2023-01-08T08:22:46.405Z,1001.32
2023-01-08T08:23:46.377Z,1001.31
2023-01-08T08:24:46.360Z,1001.29
2023-01-08T08:25:46.346Z,1001.31
2023-01-08T08:26:46.334Z,1001.32
2023-01-08T08:27:46.382Z,1001.26
2023-01-08T08:28:46.303Z,1001.24
2023-01-08T08:29:46.311Z,1001.27
2023-01-08T08:30:46.288Z,1001.25
2023-01-08T08:31:46.283Z,1001.20
2023-01-08T08:32:46.306Z,1001.21
2023-01-08T08:33:46.291Z,1001.17
2023-01-08T08:34:46.230Z,1001.21
2023-01-08T08:35:46.232Z,1001.29
2023-01-08T08:36:46.226Z,1001.27
2023-01-08T08:37:46.234Z,1001.28
2023-01-08T08:38:46.193Z,1001.23
2023-01-08T08:39:46.186Z,1001.25
2023-01-08T08:40:46.159Z,1001.28
2023-01-08T08:41:46.168Z,1001.24
2023-01-08T08:42:46.203Z,1001.25
2023-01-08T08:43:46.147Z,1001.22
2023-01-08T08:44:46.128Z,1001.20
2023-01-08T08:45:46.110Z,1001.21
2023-01-08T08:46:46.156Z,1001.24
2023-01-08T08:47:46.089Z,1001.31
2023-01-08T08:48:46.127Z,1001.25
2023-01-08T08:49:46.075Z,1001.25
2023-01-08T08:50:46.067Z,1001.22
2023-01-08T08:51:46.050Z,1001.19
2023-01-08T08:52:46.024Z,1001.19
2023-01-08T08:53:46.077Z,1001.23
2023-01-08T08:54:46.015Z,1001.19
2023-01-08T08:55:46.021Z,1001.16
2023-01-08T08:56:45.988Z,1001.17
2023-01-08T08:57:45.985Z,1001.12
2023-01-08T08:58:46.011Z,1001.12
2023-01-08T08:59:45.962Z,1001.10
2023-01-08T09:00:45.939Z,1001.06
2023-01-08T09:01:46.004Z,1001.05
2023-01-08T09:02:46.099Z,1000.99
2023-01-08T09:03:45.945Z,1000.97
2023-01-08T09:04:45.899Z,1001.01
2023-01-08T09:05:45.887Z,1001.06
2023-01-08T09:06:45.876Z,1001.09
2023-01-08T09:07:45.865Z,1001.10
2023-01-08T09:08:45.887Z,1001.16
2023-01-08T09:09:45.844Z,1001.21
2023-01-08T09:10:45.827Z,1001.25
2023-01-08T09:11:45.823Z,1001.19
2023-01-08T09:12:45.798Z,1001.19
2023-01-08T09:13:45.829Z,1001.18
2023-01-08T09:14:45.776Z,1001.17
2023-01-08T09:15:45.766Z,1001.16
2023-01-08T09:16:45.757Z,1001.11
2023-01-08T09:17:45.791Z,1001.10
2023-01-08T09:18:45.773Z,1001.00
2023-01-08T09:19:45.710Z,1001.00
2023-01-08T09:20:45.724Z,1001.00
2023-01-08T09:21:45.700Z,1000.97
2023-01-08T09:22:45.685Z,1000.86
2023-01-08T09:23:45.693Z,1000.91
2023-01-08T09:24:45.679Z,1000.81
2023-01-08T09:25:45.678Z,1000.82
2023-01-08T09:26:45.650Z,1000.84
2023-01-08T09:27:45.659Z,1000.83
2023-01-08T09:28:45.655Z,1000.83
2023-01-08T09:29:45.632Z,1000.83
2023-01-08T09:30:45.613Z,1000.81
2023-01-08T09:31:45.688Z,1000.80
2023-01-08T09:32:45.590Z,1000.78
2023-01-08T09:33:45.569Z,1000.73
2023-01-08T09:34:45.596Z,1000.81
2023-01-08T09:35:45.554Z,1000.85
2023-01-08T09:36:45.540Z,1000.85
2023-01-08T09:37:45.526Z,1000.81
2023-01-08T09:38:45.519Z,1000.81
2023-01-08T09:39:50.980Z,1000.81
2023-01-08T09:40:46.486Z,1000.81
2023-01-08T09:41:45.497Z,1000.85
2023-01-08T09:42:45.462Z,1000.84
2023-01-08T09:43:45.454Z,1000.84
2023-01-08T09:44:45.494Z,1000.80
2023-01-08T09:45:45.440Z,1000.81
2023-01-08T09:46:45.428Z,1000.80
2023-01-08T09:47:45.442Z,1000.80
2023-01-08T09:48:45.410Z,1000.84
2023-01-08T09:49:45.428Z,1000.81
2023-01-08T09:50:45.366Z,1000.90
2023-01-08T09:51:45.357Z,1000.86
2023-01-08T09:52:45.339Z,1000.86
2023-01-08T09:53:45.334Z,1000.79
2023-01-08T09:54:45.370Z,1000.84
2023-01-08T09:55:45.322Z,1000.79
2023-01-08T09:56:45.293Z,1000.76
2023-01-08T09:57:45.345Z,1000.74
2023-01-08T09:58:45.292Z,1000.72
2023-01-08T09:59:45.317Z,1000.69
2023-01-08T10:00:45.314Z,1000.65
2023-01-08T10:01:45.382Z,1000.68
2023-01-08T10:02:45.255Z,1000.69
2023-01-08T10:03:45.263Z,1000.71
2023-01-08T10:04:45.254Z,1000.72
2023-01-08T10:05:45.204Z,1000.73
2023-01-08T10:06:45.196Z,1000.65
2023-01-08T10:07:45.192Z,1000.57
2023-01-08T10:09:45.208Z,1000.62
2023-01-08T10:10:45.161Z,1000.63
2023-01-08T10:11:45.137Z,1000.60
2023-01-08T10:12:45.131Z,1000.60
2023-01-08T10:13:45.122Z,1000.52
2023-01-08T10:14:45.146Z,1000.57
2023-01-08T10:15:45.103Z,1000.48
2023-01-08T10:16:45.081Z,1000.43
2023-01-08T10:17:45.087Z,1000.40
2023-01-08T10:18:45.065Z,1000.43
2023-01-08T10:19:45.097Z,1000.42
2023-01-08T10:20:45.040Z,1000.44
2023-01-08T10:21:45.040Z,1000.49
2023-01-08T10:22:45.031Z,1000.48
2023-01-08T10:23:45.004Z,1000.45
2023-01-08T10:24:45.007Z,1000.46
2023-01-08T10:25:44.990Z,1000.49
2023-01-08T10:26:44.969Z,1000.48
2023-01-08T10:27:44.991Z,1000.52
2023-01-08T10:28:44.958Z,1000.52
2023-01-08T10:29:44.987Z,1000.54
2023-01-08T10:30:44.913Z,1000.48
2023-01-08T10:31:44.962Z,1000.45
2023-01-08T10:32:44.906Z,1000.42
2023-01-08T10:33:44.893Z,1000.43
2023-01-08T10:34:44.932Z,1000.43
2023-01-08T10:35:44.887Z,1000.45
2023-01-08T10:36:44.857Z,1000.46
2023-01-08T10:37:44.864Z,1000.39
2023-01-08T10:38:44.831Z,1000.40
2023-01-08T10:39:44.818Z,1000.41
2023-01-08T10:40:44.857Z,1000.42
2023-01-08T10:41:44.866Z,1000.40
2023-01-08T10:42:44.802Z,1000.47
2023-01-08T10:43:44.793Z,1000.49
2023-01-08T10:44:44.759Z,1000.41
2023-01-08T10:45:44.833Z,1000.36
2023-01-08T10:46:44.774Z,1000.36
2023-01-08T10:47:44.727Z,1000.29
2023-01-08T10:48:44.758Z,1000.30
2023-01-08T10:49:44.720Z,1000.32
2023-01-08T10:50:44.741Z,1000.31
2023-01-08T10:51:44.703Z,1000.29
2023-01-08T10:52:44.670Z,1000.30
2023-01-08T10:53:44.686Z,1000.28
2023-01-08T10:54:44.640Z,1000.21
2023-01-08T10:55:44.703Z,1000.28
2023-01-08T10:56:44.631Z,1000.23
2023-01-08T10:57:44.654Z,1000.23
2023-01-08T10:58:44.654Z,1000.30
2023-01-08T10:59:44.615Z,1000.32
2023-01-08T11:00:44.699Z,1000.32
2023-01-08T11:01:44.677Z,1000.29
2023-01-08T11:02:44.657Z,1000.35
2023-01-08T11:03:44.560Z,1000.33
2023-01-08T11:04:44.545Z,1000.38
2023-01-08T11:05:44.564Z,1000.40
2023-01-08T11:06:44.519Z,1000.37
2023-01-08T11:07:44.530Z,1000.38
2023-01-08T11:08:44.494Z,1000.34
2023-01-08T11:09:44.513Z,1000.36
2023-01-08T11:10:44.541Z,1000.29
2023-01-08T11:11:44.494Z,1000.26
2023-01-08T11:12:44.497Z,1000.25
2023-01-08T11:13:44.445Z,1000.23
2023-01-08T11:14:44.458Z,1000.18
2023-01-08T11:15:44.473Z,1000.20
2023-01-08T11:16:44.417Z,1000.20
2023-01-08T11:17:44.414Z,1000.14
2023-01-08T11:18:44.386Z,1000.16
2023-01-08T11:19:44.385Z,1000.17
2023-01-08T11:20:44.414Z,1000.14
2023-01-08T11:21:44.381Z,1000.18
2023-01-08T11:22:44.346Z,1000.21
2023-01-08T11:23:44.361Z,1000.18
2023-01-08T11:24:44.322Z,1000.12
2023-01-08T11:25:44.345Z,1000.03
2023-01-08T11:26:44.292Z,999.99
2023-01-08T11:27:44.276Z,999.99
2023-01-08T11:28:44.282Z,999.98
2023-01-08T11:29:44.276Z,999.97
2023-01-08T11:30:44.286Z,999.98
2023-01-08T11:31:44.363Z,999.92
2023-01-08T11:32:44.240Z,999.89
2023-01-08T11:33:44.215Z,999.89
2023-01-08T11:34:44.208Z,999.90
2023-01-08T11:35:44.265Z,999.92
2023-01-08T11:36:44.174Z,999.95
2023-01-08T11:37:44.180Z,999.91
2023-01-08T11:38:44.168Z,999.95
2023-01-08T11:39:44.171Z,999.92
2023-01-08T11:40:44.173Z,999.92
2023-01-08T11:41:44.130Z,999.88
2023-01-08T11:42:44.114Z,999.87
2023-01-08T11:43:44.105Z,999.86
2023-01-08T11:44:44.096Z,999.84
2023-01-08T11:45:44.162Z,999.78
2023-01-08T11:46:44.087Z,999.78
2023-01-08T11:47:44.073Z,999.78
2023-01-08T11:48:44.061Z,999.74
2023-01-08T11:49:44.045Z,999.79
2023-01-08T11:50:44.063Z,999.80
2023-01-08T11:51:44.023Z,999.87
2023-01-08T11:52:44.003Z,999.85
2023-01-08T11:53:44.002Z,999.84
2023-01-08T11:54:43.964Z,999.91
2023-01-08T11:55:44.010Z,999.98
2023-01-08T11:56:43.955Z,999.95
2023-01-08T11:57:43.976Z,999.93
2023-01-08T11:58:43.956Z,999.94
2023-01-08T11:59:43.920Z,999.97
2023-01-08T12:00:43.929Z,1000.01
2023-01-08T12:01:44.061Z,1000.06
2023-01-08T12:02:43.883Z,1000.10
2023-01-08T12:03:43.891Z,1000.03
2023-01-08T12:04:43.886Z,1000.06
2023-01-08T12:05:43.872Z,1000.08
2023-01-08T12:06:43.884Z,1000.09
2023-01-08T12:07:43.849Z,1000.04